sensor_id;sensor_type;location;lat;lon;timestamp;P1;durP1;ratioP1;P2;durP2;ratioP2
74528;SDS011;63009;52.584;5.932;2023-10-13T00:01:33;19.90;;;9.43;;
74528;SDS011;63009;52.584;5.932;2023-10-13T00:03:59;20.30;;;8.88;;
74528;SDS011;63009;52.584;5.932;2023-10-13T00:06:24;22.80;;;10.25;;
74528;SDS011;63009;52.584;5.932;2023-10-13T00:08:51;21.95;;;9.43;;
74528;SDS011;63009;52.584;5.932;2023-10-13T00:11:17;20.67;;;9.23;;
74528;SDS011;63009;52.584;5.932;2023-10-13T00:13:43;21.83;;;9.90;;
74528;SDS011;63009;52.584;5.932;2023-10-13T00:16:15;21.48;;;9.50;;
74528;SDS011;63009;52.584;5.932;2023-10-13T00:18:48;20.48;;;9.80;;
74528;SDS011;63009;52.584;5.932;2023-10-13T00:21:16;21.85;;;10.00;;
74528;SDS011;63009;52.584;5.932;2023-10-13T00:23:55;20.63;;;9.95;;
74528;SDS011;63009;52.584;5.932;2023-10-13T00:26:21;22.00;;;10.32;;
74528;SDS011;63009;52.584;5.932;2023-10-13T00:28:53;23.35;;;10.02;;
74528;SDS011;63009;52.584;5.932;2023-10-13T00:31:40;24.70;;;10.45;;
74528;SDS011;63009;52.584;5.932;2023-10-13T00:34:07;23.05;;;11.13;;
74528;SDS011;63009;52.584;5.932;2023-10-13T00:36:36;25.05;;;11.60;;
74528;SDS011;63009;52.584;5.932;2023-10-13T00:39:02;23.05;;;12.82;;
74528;SDS011;63009;52.584;5.932;2023-10-13T00:41:31;24.05;;;11.10;;
74528;SDS011;63009;52.584;5.932;2023-10-13T00:44:17;21.75;;;12.65;;
74528;SDS011;63009;52.584;5.932;2023-10-13T00:46:42;21.02;;;11.18;;
74528;SDS011;63009;52.584;5.932;2023-10-13T00:49:10;22.35;;;11.27;;
74528;SDS011;63009;52.584;5.932;2023-10-13T00:51:40;20.27;;;10.55;;
74528;SDS011;63009;52.584;5.932;2023-10-13T00:54:12;21.17;;;11.52;;
74528;SDS011;63009;52.584;5.932;2023-10-13T00:56:41;19.50;;;10.82;;
74528;SDS011;63009;52.584;5.932;2023-10-13T00:59:26;20.17;;;10.23;;
74528;SDS011;63009;52.584;5.932;2023-10-13T01:01:52;21.35;;;11.02;;
74528;SDS011;63009;52.584;5.932;2023-10-13T01:04:20;23.50;;;10.65;;
74528;SDS011;63009;52.584;5.932;2023-10-13T01:06:49;21.52;;;10.75;;
74528;SDS011;63009;52.584;5.932;2023-10-13T01:09:16;24.15;;;11.77;;
74528;SDS011;63009;52.584;5.932;2023-10-13T01:11:45;20.42;;;11.20;;
74528;SDS011;63009;52.584;5.932;2023-10-13T01:14:17;19.83;;;10.68;;
74528;SDS011;63009;52.584;5.932;2023-10-13T01:16:45;21.00;;;10.18;;
74528;SDS011;63009;52.584;5.932;2023-10-13T01:19:17;19.45;;;10.32;;
74528;SDS011;63009;52.584;5.932;2023-10-13T01:21:44;19.80;;;10.60;;
74528;SDS011;63009;52.584;5.932;2023-10-13T01:24:10;22.10;;;11.60;;
74528;SDS011;63009;52.584;5.932;2023-10-13T01:26:38;21.90;;;11.23;;
74528;SDS011;63009;52.584;5.932;2023-10-13T01:29:05;21.25;;;11.07;;
74528;SDS011;63009;52.584;5.932;2023-10-13T01:31:40;20.50;;;11.40;;
74528;SDS011;63009;52.584;5.932;2023-10-13T01:36:44;21.35;;;11.13;;
74528;SDS011;63009;52.584;5.932;2023-10-13T01:39:10;22.45;;;11.48;;
74528;SDS011;63009;52.584;5.932;2023-10-13T01:41:36;21.23;;;10.65;;
74528;SDS011;63009;52.584;5.932;2023-10-13T01:44:04;20.08;;;10.98;;
74528;SDS011;63009;52.584;5.932;2023-10-13T01:46:29;22.17;;;11.57;;
74528;SDS011;63009;52.584;5.932;2023-10-13T01:48:55;19.97;;;9.83;;
74528;SDS011;63009;52.584;5.932;2023-10-13T01:51:22;19.00;;;10.27;;
74528;SDS011;63009;52.584;5.932;2023-10-13T01:53:48;25.90;;;11.40;;
74528;SDS011;63009;52.584;5.932;2023-10-13T01:56:21;19.90;;;10.32;;
74528;SDS011;63009;52.584;5.932;2023-10-13T01:58:48;19.80;;;10.60;;
74528;SDS011;63009;52.584;5.932;2023-10-13T02:01:13;20.88;;;10.20;;
74528;SDS011;63009;52.584;5.932;2023-10-13T02:03:51;21.42;;;10.52;;
74528;SDS011;63009;52.584;5.932;2023-10-13T02:06:26;19.88;;;10.05;;
74528;SDS011;63009;52.584;5.932;2023-10-13T02:08:57;22.02;;;10.05;;
74528;SDS011;63009;52.584;5.932;2023-10-13T02:11:27;20.20;;;10.95;;
74528;SDS011;63009;52.584;5.932;2023-10-13T02:13:52;19.27;;;9.97;;
74528;SDS011;63009;52.584;5.932;2023-10-13T02:16:22;21.50;;;10.90;;
74528;SDS011;63009;52.584;5.932;2023-10-13T02:18:47;20.42;;;9.70;;
74528;SDS011;63009;52.584;5.932;2023-10-13T02:21:16;21.05;;;9.23;;
74528;SDS011;63009;52.584;5.932;2023-10-13T02:23:41;19.75;;;10.05;;
74528;SDS011;63009;52.584;5.932;2023-10-13T02:28:40;19.95;;;10.23;;
74528;SDS011;63009;52.584;5.932;2023-10-13T02:31:06;21.60;;;10.45;;
74528;SDS011;63009;52.584;5.932;2023-10-13T02:33:32;20.02;;;10.65;;
74528;SDS011;63009;52.584;5.932;2023-10-13T02:35:58;22.83;;;10.07;;
74528;SDS011;63009;52.584;5.932;2023-10-13T02:38:29;21.77;;;10.32;;
74528;SDS011;63009;52.584;5.932;2023-10-13T02:41:03;22.30;;;11.13;;
74528;SDS011;63009;52.584;5.932;2023-10-13T02:43:32;22.65;;;10.90;;
74528;SDS011;63009;52.584;5.932;2023-10-13T02:46:01;22.08;;;10.65;;
74528;SDS011;63009;52.584;5.932;2023-10-13T02:48:28;24.70;;;11.00;;
74528;SDS011;63009;52.584;5.932;2023-10-13T02:51:06;20.98;;;10.82;;
74528;SDS011;63009;52.584;5.932;2023-10-13T02:53:43;23.95;;;12.43;;
74528;SDS011;63009;52.584;5.932;2023-10-13T02:56:12;20.77;;;10.35;;
74528;SDS011;63009;52.584;5.932;2023-10-13T02:58:39;22.58;;;11.05;;
74528;SDS011;63009;52.584;5.932;2023-10-13T03:01:10;23.70;;;11.13;;
74528;SDS011;63009;52.584;5.932;2023-10-13T03:03:49;24.27;;;11.55;;
74528;SDS011;63009;52.584;5.932;2023-10-13T03:06:17;23.15;;;11.05;;
74528;SDS011;63009;52.584;5.932;2023-10-13T03:08:44;22.13;;;10.90;;
74528;SDS011;63009;52.584;5.932;2023-10-13T03:11:10;21.35;;;11.05;;
74528;SDS011;63009;52.584;5.932;2023-10-13T03:13:36;24.77;;;11.63;;
74528;SDS011;63009;52.584;5.932;2023-10-13T03:16:10;23.08;;;10.25;;
74528;SDS011;63009;52.584;5.932;2023-10-13T03:18:36;22.48;;;11.68;;
74528;SDS011;63009;52.584;5.932;2023-10-13T03:21:03;21.58;;;10.88;;
74528;SDS011;63009;52.584;5.932;2023-10-13T03:23:28;22.75;;;11.88;;
74528;SDS011;63009;52.584;5.932;2023-10-13T03:25:53;23.60;;;11.10;;
74528;SDS011;63009;52.584;5.932;2023-10-13T03:28:20;21.17;;;10.57;;
74528;SDS011;63009;52.584;5.932;2023-10-13T03:30:50;20.02;;;11.35;;
74528;SDS011;63009;52.584;5.932;2023-10-13T03:33:17;23.17;;;11.75;;
74528;SDS011;63009;52.584;5.932;2023-10-13T03:35:52;21.80;;;11.05;;
74528;SDS011;63009;52.584;5.932;2023-10-13T03:38:24;19.58;;;10.93;;
74528;SDS011;63009;52.584;5.932;2023-10-13T03:40:52;23.25;;;12.35;;
74528;SDS011;63009;52.584;5.932;2023-10-13T03:43:33;22.38;;;10.55;;
74528;SDS011;63009;52.584;5.932;2023-10-13T03:46:09;23.48;;;12.38;;
74528;SDS011;63009;52.584;5.932;2023-10-13T03:48:35;20.90;;;10.82;;
74528;SDS011;63009;52.584;5.932;2023-10-13T03:51:16;20.15;;;11.68;;
74528;SDS011;63009;52.584;5.932;2023-10-13T03:53:42;22.58;;;11.43;;
74528;SDS011;63009;52.584;5.932;2023-10-13T03:56:25;20.38;;;11.15;;
74528;SDS011;63009;52.584;5.932;2023-10-13T03:58:53;22.30;;;12.13;;
74528;SDS011;63009;52.584;5.932;2023-10-13T04:01:23;20.38;;;11.20;;
74528;SDS011;63009;52.584;5.932;2023-10-13T04:04:00;22.95;;;11.38;;
74528;SDS011;63009;52.584;5.932;2023-10-13T04:06:32;25.95;;;11.07;;
74528;SDS011;63009;52.584;5.932;2023-10-13T04:09:26;21.17;;;10.90;;
74528;SDS011;63009;52.584;5.932;2023-10-13T04:11:54;20.50;;;11.13;;
74528;SDS011;63009;52.584;5.932;2023-10-13T04:15:02;21.25;;;10.50;;
74528;SDS011;63009;52.584;5.932;2023-10-13T04:17:40;18.98;;;10.35;;
74528;SDS011;63009;52.584;5.932;2023-10-13T04:20:09;23.60;;;11.25;;
74528;SDS011;63009;52.584;5.932;2023-10-13T04:22:38;22.27;;;11.37;;
74528;SDS011;63009;52.584;5.932;2023-10-13T04:28:00;19.88;;;11.27;;
74528;SDS011;63009;52.584;5.932;2023-10-13T04:30:48;22.25;;;10.98;;
74528;SDS011;63009;52.584;5.932;2023-10-13T04:33:24;22.90;;;10.70;;
74528;SDS011;63009;52.584;5.932;2023-10-13T04:36:09;20.40;;;9.95;;
74528;SDS011;63009;52.584;5.932;2023-10-13T04:41:29;22.63;;;11.15;;
74528;SDS011;63009;52.584;5.932;2023-10-13T04:44:08;18.95;;;10.27;;
74528;SDS011;63009;52.584;5.932;2023-10-13T04:46:55;22.35;;;10.32;;
74528;SDS011;63009;52.584;5.932;2023-10-13T04:49:24;19.73;;;10.15;;
74528;SDS011;63009;52.584;5.932;2023-10-13T04:51:58;21.00;;;10.75;;
74528;SDS011;63009;52.584;5.932;2023-10-13T04:54:28;18.45;;;10.20;;
74528;SDS011;63009;52.584;5.932;2023-10-13T04:57:12;18.75;;;10.38;;
74528;SDS011;63009;52.584;5.932;2023-10-13T04:59:45;20.83;;;10.52;;
74528;SDS011;63009;52.584;5.932;2023-10-13T05:02:29;19.90;;;9.38;;
74528;SDS011;63009;52.584;5.932;2023-10-13T05:05:01;16.95;;;9.27;;
74528;SDS011;63009;52.584;5.932;2023-10-13T05:07:45;17.73;;;8.77;;
74528;SDS011;63009;52.584;5.932;2023-10-13T05:10:30;18.60;;;8.40;;
74528;SDS011;63009;52.584;5.932;2023-10-13T05:13:14;17.58;;;8.32;;
74528;SDS011;63009;52.584;5.932;2023-10-13T05:15:58;14.90;;;8.60;;
74528;SDS011;63009;52.584;5.932;2023-10-13T05:18:43;13.55;;;6.70;;
74528;SDS011;63009;52.584;5.932;2023-10-13T05:21:27;15.98;;;7.72;;
74528;SDS011;63009;52.584;5.932;2023-10-13T05:24:11;14.63;;;7.00;;
74528;SDS011;63009;52.584;5.932;2023-10-13T05:26:55;14.90;;;6.78;;
74528;SDS011;63009;52.584;5.932;2023-10-13T05:29:40;12.32;;;6.13;;
74528;SDS011;63009;52.584;5.932;2023-10-13T05:32:25;11.32;;;5.55;;
74528;SDS011;63009;52.584;5.932;2023-10-13T05:35:08;12.07;;;5.20;;
74528;SDS011;63009;52.584;5.932;2023-10-13T05:37:52;13.13;;;5.72;;
74528;SDS011;63009;52.584;5.932;2023-10-13T05:40:36;11.85;;;5.38;;
74528;SDS011;63009;52.584;5.932;2023-10-13T05:43:20;10.90;;;5.18;;
74528;SDS011;63009;52.584;5.932;2023-10-13T05:46:05;9.27;;;4.57;;
74528;SDS011;63009;52.584;5.932;2023-10-13T05:49:06;8.90;;;4.22;;
74528;SDS011;63009;52.584;5.932;2023-10-13T05:51:41;10.77;;;4.07;;
74528;SDS011;63009;52.584;5.932;2023-10-13T05:54:07;9.30;;;3.85;;
74528;SDS011;63009;52.584;5.932;2023-10-13T05:56:38;10.15;;;3.65;;
74528;SDS011;63009;52.584;5.932;2023-10-13T05:59:32;8.85;;;4.03;;
74528;SDS011;63009;52.584;5.932;2023-10-13T06:02:17;8.98;;;4.50;;
74528;SDS011;63009;52.584;5.932;2023-10-13T06:05:11;10.60;;;4.28;;
74528;SDS011;63009;52.584;5.932;2023-10-13T06:07:56;9.00;;;4.60;;
74528;SDS011;63009;52.584;5.932;2023-10-13T06:10:40;9.98;;;3.75;;
74528;SDS011;63009;52.584;5.932;2023-10-13T06:13:25;9.80;;;4.00;;
74528;SDS011;63009;52.584;5.932;2023-10-13T06:16:10;9.73;;;4.10;;
74528;SDS011;63009;52.584;5.932;2023-10-13T06:18:55;10.50;;;4.10;;
74528;SDS011;63009;52.584;5.932;2023-10-13T06:21:39;10.52;;;4.63;;
74528;SDS011;63009;52.584;5.932;2023-10-13T06:24:23;11.00;;;4.35;;
74528;SDS011;63009;52.584;5.932;2023-10-13T06:27:07;12.57;;;4.45;;
74528;SDS011;63009;52.584;5.932;2023-10-13T06:30:02;14.07;;;4.20;;
74528;SDS011;63009;52.584;5.932;2023-10-13T06:32:29;8.88;;;3.40;;
74528;SDS011;63009;52.584;5.932;2023-10-13T06:34:56;11.18;;;4.45;;
74528;SDS011;63009;52.584;5.932;2023-10-13T06:37:32;13.75;;;4.20;;
74528;SDS011;63009;52.584;5.932;2023-10-13T06:39:59;10.93;;;3.83;;
74528;SDS011;63009;52.584;5.932;2023-10-13T06:42:31;9.57;;;4.00;;
74528;SDS011;63009;52.584;5.932;2023-10-13T06:44:59;14.68;;;5.03;;
74528;SDS011;63009;52.584;5.932;2023-10-13T06:47:28;10.15;;;4.18;;
74528;SDS011;63009;52.584;5.932;2023-10-13T06:49:53;10.73;;;4.03;;
74528;SDS011;63009;52.584;5.932;2023-10-13T06:52:21;12.50;;;4.50;;
74528;SDS011;63009;52.584;5.932;2023-10-13T06:54:50;12.38;;;3.75;;
74528;SDS011;63009;52.584;5.932;2023-10-13T06:57:16;11.02;;;3.63;;
74528;SDS011;63009;52.584;5.932;2023-10-13T06:59:45;11.88;;;3.80;;
74528;SDS011;63009;52.584;5.932;2023-10-13T07:02:11;12.00;;;3.85;;
74528;SDS011;63009;52.584;5.932;2023-10-13T07:04:46;11.38;;;4.40;;
74528;SDS011;63009;52.584;5.932;2023-10-13T07:07:32;12.30;;;4.45;;
74528;SDS011;63009;52.584;5.932;2023-10-13T07:09:58;12.98;;;4.47;;
74528;SDS011;63009;52.584;5.932;2023-10-13T07:12:23;13.05;;;4.13;;
74528;SDS011;63009;52.584;5.932;2023-10-13T07:14:51;12.88;;;4.93;;
74528;SDS011;63009;52.584;5.932;2023-10-13T07:17:17;14.85;;;4.43;;
74528;SDS011;63009;52.584;5.932;2023-10-13T07:19:49;14.85;;;4.03;;
74528;SDS011;63009;52.584;5.932;2023-10-13T07:22:18;14.27;;;4.82;;
74528;SDS011;63009;52.584;5.932;2023-10-13T07:24:45;14.00;;;5.30;;
74528;SDS011;63009;52.584;5.932;2023-10-13T07:27:13;14.73;;;4.53;;
74528;SDS011;63009;52.584;5.932;2023-10-13T07:29:55;14.52;;;4.90;;
74528;SDS011;63009;52.584;5.932;2023-10-13T07:32:42;12.13;;;4.65;;
74528;SDS011;63009;52.584;5.932;2023-10-13T07:35:12;11.90;;;4.65;;
74528;SDS011;63009;52.584;5.932;2023-10-13T07:37:37;14.15;;;4.53;;
74528;SDS011;63009;52.584;5.932;2023-10-13T07:40:06;17.23;;;5.25;;
74528;SDS011;63009;52.584;5.932;2023-10-13T07:42:47;14.75;;;4.63;;
74528;SDS011;63009;52.584;5.932;2023-10-13T07:45:13;15.20;;;5.07;;
74528;SDS011;63009;52.584;5.932;2023-10-13T07:47:39;13.00;;;5.10;;
74528;SDS011;63009;52.584;5.932;2023-10-13T07:50:05;14.30;;;4.97;;
74528;SDS011;63009;52.584;5.932;2023-10-13T07:52:32;12.45;;;4.47;;
74528;SDS011;63009;52.584;5.932;2023-10-13T07:55:19;12.55;;;5.10;;
74528;SDS011;63009;52.584;5.932;2023-10-13T07:57:46;15.52;;;5.63;;
74528;SDS011;63009;52.584;5.932;2023-10-13T08:00:22;13.77;;;5.50;;
74528;SDS011;63009;52.584;5.932;2023-10-13T08:03:12;14.88;;;5.80;;
74528;SDS011;63009;52.584;5.932;2023-10-13T08:05:41;13.32;;;5.28;;
74528;SDS011;63009;52.584;5.932;2023-10-13T08:08:29;14.45;;;6.10;;
74528;SDS011;63009;52.584;5.932;2023-10-13T08:11:03;15.13;;;7.20;;
74528;SDS011;63009;52.584;5.932;2023-10-13T08:16:28;17.88;;;7.10;;
74528;SDS011;63009;52.584;5.932;2023-10-13T08:19:11;16.77;;;6.82;;
74528;SDS011;63009;52.584;5.932;2023-10-13T08:21:40;16.15;;;6.90;;
74528;SDS011;63009;52.584;5.932;2023-10-13T08:24:17;13.95;;;7.32;;
74528;SDS011;63009;52.584;5.932;2023-10-13T08:27:13;15.07;;;6.90;;
74528;SDS011;63009;52.584;5.932;2023-10-13T08:29:39;14.73;;;6.93;;
74528;SDS011;63009;52.584;5.932;2023-10-13T08:32:25;13.85;;;6.63;;
74528;SDS011;63009;52.584;5.932;2023-10-13T08:34:58;11.63;;;6.63;;
74528;SDS011;63009;52.584;5.932;2023-10-13T08:37:24;14.13;;;5.88;;
74528;SDS011;63009;52.584;5.932;2023-10-13T08:39:51;14.55;;;5.68;;
74528;SDS011;63009;52.584;5.932;2023-10-13T08:42:36;12.95;;;5.97;;
74528;SDS011;63009;52.584;5.932;2023-10-13T08:47:33;12.38;;;5.53;;
74528;SDS011;63009;52.584;5.932;2023-10-13T08:50:01;13.25;;;4.60;;
74528;SDS011;63009;52.584;5.932;2023-10-13T08:52:35;14.02;;;5.22;;
74528;SDS011;63009;52.584;5.932;2023-10-13T08:55:11;13.68;;;5.82;;
74528;SDS011;63009;52.584;5.932;2023-10-13T08:57:57;11.98;;;4.75;;
74528;SDS011;63009;52.584;5.932;2023-10-13T09:00:38;13.52;;;5.18;;
74528;SDS011;63009;52.584;5.932;2023-10-13T09:03:37;13.43;;;4.78;;
74528;SDS011;63009;52.584;5.932;2023-10-13T09:06:04;17.10;;;5.65;;
74528;SDS011;63009;52.584;5.932;2023-10-13T09:08:33;15.00;;;4.95;;
74528;SDS011;63009;52.584;5.932;2023-10-13T09:11:10;12.38;;;5.43;;
74528;SDS011;63009;52.584;5.932;2023-10-13T09:13:39;11.63;;;4.78;;
74528;SDS011;63009;52.584;5.932;2023-10-13T09:16:14;16.80;;;5.47;;
74528;SDS011;63009;52.584;5.932;2023-10-13T09:19:02;11.95;;;5.05;;
74528;SDS011;63009;52.584;5.932;2023-10-13T09:21:40;11.90;;;6.13;;
74528;SDS011;63009;52.584;5.932;2023-10-13T09:24:09;14.35;;;5.82;;
74528;SDS011;63009;52.584;5.932;2023-10-13T09:26:54;13.73;;;5.47;;
74528;SDS011;63009;52.584;5.932;2023-10-13T09:29:26;11.75;;;5.07;;
74528;SDS011;63009;52.584;5.932;2023-10-13T09:31:58;13.27;;;4.97;;
74528;SDS011;63009;52.584;5.932;2023-10-13T09:34:25;15.25;;;4.97;;
74528;SDS011;63009;52.584;5.932;2023-10-13T09:36:56;13.32;;;5.10;;
74528;SDS011;63009;52.584;5.932;2023-10-13T09:39:26;14.52;;;4.97;;
74528;SDS011;63009;52.584;5.932;2023-10-13T09:42:11;10.85;;;4.07;;
74528;SDS011;63009;52.584;5.932;2023-10-13T09:44:40;16.15;;;4.97;;
74528;SDS011;63009;52.584;5.932;2023-10-13T09:47:07;11.07;;;4.85;;
74528;SDS011;63009;52.584;5.932;2023-10-13T09:49:43;11.52;;;4.32;;
74528;SDS011;63009;52.584;5.932;2023-10-13T09:52:11;12.60;;;5.00;;
74528;SDS011;63009;52.584;5.932;2023-10-13T09:54:44;13.75;;;4.65;;
74528;SDS011;63009;52.584;5.932;2023-10-13T09:57:24;15.82;;;5.75;;
74528;SDS011;63009;52.584;5.932;2023-10-13T10:00:00;13.00;;;4.85;;
74528;SDS011;63009;52.584;5.932;2023-10-13T10:05:25;16.52;;;4.90;;
74528;SDS011;63009;52.584;5.932;2023-10-13T10:07:57;13.77;;;4.70;;
74528;SDS011;63009;52.584;5.932;2023-10-13T10:10:25;13.15;;;5.28;;
74528;SDS011;63009;52.584;5.932;2023-10-13T10:13:15;13.27;;;4.32;;
74528;SDS011;63009;52.584;5.932;2023-10-13T10:15:51;14.48;;;5.03;;
74528;SDS011;63009;52.584;5.932;2023-10-13T10:20:50;15.10;;;4.53;;
74528;SDS011;63009;52.584;5.932;2023-10-13T10:23:27;13.73;;;5.18;;
74528;SDS011;63009;52.584;5.932;2023-10-13T10:26:13;11.70;;;4.35;;
74528;SDS011;63009;52.584;5.932;2023-10-13T10:28:42;15.38;;;4.80;;
74528;SDS011;63009;52.584;5.932;2023-10-13T10:31:08;15.57;;;4.97;;
74528;SDS011;63009;52.584;5.932;2023-10-13T10:33:40;12.75;;;5.20;;
74528;SDS011;63009;52.584;5.932;2023-10-13T10:36:06;16.75;;;5.03;;
74528;SDS011;63009;52.584;5.932;2023-10-13T10:38:50;15.27;;;4.60;;
74528;SDS011;63009;52.584;5.932;2023-10-13T10:41:17;14.23;;;4.70;;
74528;SDS011;63009;52.584;5.932;2023-10-13T10:43:54;14.55;;;4.80;;
74528;SDS011;63009;52.584;5.932;2023-10-13T10:46:29;15.30;;;5.55;;
74528;SDS011;63009;52.584;5.932;2023-10-13T10:49:05;15.38;;;4.38;;
74528;SDS011;63009;52.584;5.932;2023-10-13T10:51:30;13.63;;;4.93;;
74528;SDS011;63009;52.584;5.932;2023-10-13T10:53:58;12.40;;;4.28;;
74528;SDS011;63009;52.584;5.932;2023-10-13T10:56:36;13.65;;;4.90;;
74528;SDS011;63009;52.584;5.932;2023-10-13T10:59:02;15.05;;;5.55;;
74528;SDS011;63009;52.584;5.932;2023-10-13T11:01:29;14.18;;;4.68;;
74528;SDS011;63009;52.584;5.932;2023-10-13T11:04:01;12.23;;;4.65;;
74528;SDS011;63009;52.584;5.932;2023-10-13T11:06:44;12.23;;;4.78;;
74528;SDS011;63009;52.584;5.932;2023-10-13T11:09:14;16.30;;;5.43;;
74528;SDS011;63009;52.584;5.932;2023-10-13T11:11:51;15.60;;;4.40;;
74528;SDS011;63009;52.584;5.932;2023-10-13T11:14:21;16.08;;;5.63;;
74528;SDS011;63009;52.584;5.932;2023-10-13T11:16:50;17.02;;;5.00;;
74528;SDS011;63009;52.584;5.932;2023-10-13T11:19:19;14.68;;;5.53;;
74528;SDS011;63009;52.584;5.932;2023-10-13T11:21:54;11.20;;;5.15;;
74528;SDS011;63009;52.584;5.932;2023-10-13T11:24:20;15.88;;;4.80;;
74528;SDS011;63009;52.584;5.932;2023-10-13T11:26:46;13.18;;;4.38;;
74528;SDS011;63009;52.584;5.932;2023-10-13T11:29:17;16.27;;;5.10;;
74528;SDS011;63009;52.584;5.932;2023-10-13T11:31:56;13.57;;;4.65;;
74528;SDS011;63009;52.584;5.932;2023-10-13T11:34:24;14.05;;;5.22;;
74528;SDS011;63009;52.584;5.932;2023-10-13T11:36:50;15.63;;;4.82;;
74528;SDS011;63009;52.584;5.932;2023-10-13T11:39:16;18.30;;;5.30;;
74528;SDS011;63009;52.584;5.932;2023-10-13T11:41:49;14.63;;;4.75;;
74528;SDS011;63009;52.584;5.932;2023-10-13T11:44:21;14.90;;;4.80;;
74528;SDS011;63009;52.584;5.932;2023-10-13T11:46:49;17.42;;;5.75;;
74528;SDS011;63009;52.584;5.932;2023-10-13T11:49:21;15.63;;;4.55;;
74528;SDS011;63009;52.584;5.932;2023-10-13T11:51:52;17.30;;;5.53;;
74528;SDS011;63009;52.584;5.932;2023-10-13T11:54:27;13.32;;;5.28;;
74528;SDS011;63009;52.584;5.932;2023-10-13T11:56:52;13.40;;;4.88;;
74528;SDS011;63009;52.584;5.932;2023-10-13T11:59:18;12.13;;;4.65;;
74528;SDS011;63009;52.584;5.932;2023-10-13T12:01:45;15.07;;;5.10;;
74528;SDS011;63009;52.584;5.932;2023-10-13T12:04:30;14.35;;;5.22;;
74528;SDS011;63009;52.584;5.932;2023-10-13T12:06:59;18.20;;;5.63;;
74528;SDS011;63009;52.584;5.932;2023-10-13T12:09:43;13.93;;;5.07;;
74528;SDS011;63009;52.584;5.932;2023-10-13T12:12:29;13.73;;;5.03;;
74528;SDS011;63009;52.584;5.932;2023-10-13T12:15:05;14.63;;;5.20;;
74528;SDS011;63009;52.584;5.932;2023-10-13T12:17:35;14.73;;;4.85;;
74528;SDS011;63009;52.584;5.932;2023-10-13T12:20:01;19.20;;;5.45;;
74528;SDS011;63009;52.584;5.932;2023-10-13T12:22:30;19.17;;;5.82;;
74528;SDS011;63009;52.584;5.932;2023-10-13T12:25:10;18.25;;;5.90;;
74528;SDS011;63009;52.584;5.932;2023-10-13T12:27:59;14.50;;;6.13;;
74528;SDS011;63009;52.584;5.932;2023-10-13T12:30:43;12.73;;;4.63;;
74528;SDS011;63009;52.584;5.932;2023-10-13T12:33:15;15.05;;;5.15;;
74528;SDS011;63009;52.584;5.932;2023-10-13T12:35:49;17.92;;;4.68;;
74528;SDS011;63009;52.584;5.932;2023-10-13T12:38:34;12.10;;;4.38;;
74528;SDS011;63009;52.584;5.932;2023-10-13T12:41:15;14.98;;;5.22;;
74528;SDS011;63009;52.584;5.932;2023-10-13T12:44:03;13.85;;;5.82;;
74528;SDS011;63009;52.584;5.932;2023-10-13T12:46:48;13.13;;;5.13;;
74528;SDS011;63009;52.584;5.932;2023-10-13T12:49:33;15.77;;;5.68;;
74528;SDS011;63009;52.584;5.932;2023-10-13T12:52:11;15.25;;;5.07;;
74528;SDS011;63009;52.584;5.932;2023-10-13T12:54:51;15.52;;;5.20;;
74528;SDS011;63009;52.584;5.932;2023-10-13T12:57:22;13.23;;;5.03;;
74528;SDS011;63009;52.584;5.932;2023-10-13T12:59:54;17.35;;;5.68;;
74528;SDS011;63009;52.584;5.932;2023-10-13T13:02:20;17.05;;;6.22;;
74528;SDS011;63009;52.584;5.932;2023-10-13T13:04:46;14.85;;;5.18;;
74528;SDS011;63009;52.584;5.932;2023-10-13T13:07:16;15.68;;;5.28;;
74528;SDS011;63009;52.584;5.932;2023-10-13T13:09:41;13.85;;;5.78;;
74528;SDS011;63009;52.584;5.932;2023-10-13T13:12:07;17.30;;;5.38;;
74528;SDS011;63009;52.584;5.932;2023-10-13T13:14:32;14.88;;;4.55;;
74528;SDS011;63009;52.584;5.932;2023-10-13T13:17:02;15.82;;;5.00;;
74528;SDS011;63009;52.584;5.932;2023-10-13T13:19:33;15.75;;;4.57;;
74528;SDS011;63009;52.584;5.932;2023-10-13T13:22:01;14.20;;;5.55;;
74528;SDS011;63009;52.584;5.932;2023-10-13T13:24:28;18.58;;;5.32;;
74528;SDS011;63009;52.584;5.932;2023-10-13T13:26:55;18.38;;;5.28;;
74528;SDS011;63009;52.584;5.932;2023-10-13T13:29:21;15.60;;;5.05;;
74528;SDS011;63009;52.584;5.932;2023-10-13T13:31:46;16.25;;;5.40;;
74528;SDS011;63009;52.584;5.932;2023-10-13T13:34:11;13.50;;;5.50;;
74528;SDS011;63009;52.584;5.932;2023-10-13T13:36:39;13.63;;;5.43;;
74528;SDS011;63009;52.584;5.932;2023-10-13T13:39:10;17.92;;;6.70;;
74528;SDS011;63009;52.584;5.932;2023-10-13T13:41:35;16.63;;;6.18;;
74528;SDS011;63009;52.584;5.932;2023-10-13T13:44:01;15.17;;;5.67;;
74528;SDS011;63009;52.584;5.932;2023-10-13T13:46:38;19.98;;;6.32;;
74528;SDS011;63009;52.584;5.932;2023-10-13T13:49:06;14.07;;;5.65;;
74528;SDS011;63009;52.584;5.932;2023-10-13T13:51:33;16.75;;;5.70;;
74528;SDS011;63009;52.584;5.932;2023-10-13T13:54:03;14.73;;;5.93;;
74528;SDS011;63009;52.584;5.932;2023-10-13T13:56:31;16.05;;;6.57;;
74528;SDS011;63009;52.584;5.932;2023-10-13T13:59:03;19.77;;;6.25;;
74528;SDS011;63009;52.584;5.932;2023-10-13T14:01:32;14.98;;;5.60;;
74528;SDS011;63009;52.584;5.932;2023-10-13T14:03:59;13.57;;;6.20;;
74528;SDS011;63009;52.584;5.932;2023-10-13T14:06:27;15.25;;;5.25;;
74528;SDS011;63009;52.584;5.932;2023-10-13T14:08:57;20.80;;;7.63;;
74528;SDS011;63009;52.584;5.932;2023-10-13T14:11:30;15.93;;;6.00;;
74528;SDS011;63009;52.584;5.932;2023-10-13T14:14:05;16.08;;;6.65;;
74528;SDS011;63009;52.584;5.932;2023-10-13T14:16:39;13.55;;;6.00;;
74528;SDS011;63009;52.584;5.932;2023-10-13T14:19:12;12.50;;;5.82;;
74528;SDS011;63009;52.584;5.932;2023-10-13T14:21:44;17.42;;;6.63;;
74528;SDS011;63009;52.584;5.932;2023-10-13T14:24:09;14.13;;;6.00;;
74528;SDS011;63009;52.584;5.932;2023-10-13T14:26:39;13.07;;;5.43;;
74528;SDS011;63009;52.584;5.932;2023-10-13T14:29:04;12.77;;;5.90;;
74528;SDS011;63009;52.584;5.932;2023-10-13T14:31:33;13.57;;;5.43;;
74528;SDS011;63009;52.584;5.932;2023-10-13T14:34:02;15.57;;;6.28;;
74528;SDS011;63009;52.584;5.932;2023-10-13T14:36:28;15.32;;;7.05;;
74528;SDS011;63009;52.584;5.932;2023-10-13T14:38:56;14.40;;;6.88;;
74528;SDS011;63009;52.584;5.932;2023-10-13T14:41:22;17.35;;;7.95;;
74528;SDS011;63009;52.584;5.932;2023-10-13T14:43:47;18.10;;;6.00;;
74528;SDS011;63009;52.584;5.932;2023-10-13T14:46:15;15.77;;;6.18;;
74528;SDS011;63009;52.584;5.932;2023-10-13T14:48:41;17.40;;;6.28;;
74528;SDS011;63009;52.584;5.932;2023-10-13T14:51:13;14.82;;;6.70;;
74528;SDS011;63009;52.584;5.932;2023-10-13T14:53:39;14.23;;;6.20;;
74528;SDS011;63009;52.584;5.932;2023-10-13T14:56:09;18.77;;;7.35;;
74528;SDS011;63009;52.584;5.932;2023-10-13T14:58:35;15.32;;;6.80;;
74528;SDS011;63009;52.584;5.932;2023-10-13T15:01:00;13.93;;;6.37;;
74528;SDS011;63009;52.584;5.932;2023-10-13T15:03:26;17.27;;;7.80;;
74528;SDS011;63009;52.584;5.932;2023-10-13T15:05:51;18.55;;;6.40;;
74528;SDS011;63009;52.584;5.932;2023-10-13T15:08:20;22.95;;;7.35;;
74528;SDS011;63009;52.584;5.932;2023-10-13T15:10:45;16.50;;;5.90;;
74528;SDS011;63009;52.584;5.932;2023-10-13T15:13:10;20.80;;;7.03;;
74528;SDS011;63009;52.584;5.932;2023-10-13T15:15:35;18.67;;;6.53;;
74528;SDS011;63009;52.584;5.932;2023-10-13T15:18:01;15.50;;;6.07;;
74528;SDS011;63009;52.584;5.932;2023-10-13T15:20:26;21.42;;;7.35;;
74528;SDS011;63009;52.584;5.932;2023-10-13T15:22:52;16.70;;;6.75;;
74528;SDS011;63009;52.584;5.932;2023-10-13T15:25:24;18.48;;;6.43;;